Airfield :
LOGIN :

Register | Disclaimer

   EN    FR    IT 

 










Legend :    VFR   Marginal VFR   IFR   Intensive IFR   Very Intensive IFR
Visi :
Ceiling :
>= 8 km
>= 3000ft
5 to 8 km
1000 to 3000 ft
1500m to 5 km
500 to 1000 ft
800 to 1500m
200 to 500 ft
< 800m
< 200 ft
Symbols :   Thunderstorms  Fog  Heavy snow  Heavy precipitations  Wind > 20 kt
SIGMETs :     Misc.  Thunderstorms  Icing  Turbulence  Mountain Waves  Volcanic Ashes







- Airport Elevation : 52 ft
- IATA code : IOM
- Download approach charts


EGNS - Isle of Man

CURRENT METAR :
  • 181550Z 27010KT 230V300 9999 FEW009 SCT020 09/08 Q1018 NOSIG

EXPIRED METARs :
  • 181520Z 26008KT 220V310 9999 FEW009 BKN025 10/08 Q1018 RERA NOSIG
  • 181450Z 25008KT 9999 -RA SCT009 OVC020 09/08 Q1018 NOSIG
  • 181420Z 25009KT 5000 RADZ BKN009 OVC017 09/08 Q1018 NOSIG
  • 181350Z 25010KT 220V290 8000 -RA BKN009 OVC018 08/07 Q1018 BECMG SCT009
  • 181320Z 24010KT 200V270 9999 -RA BKN009 OVC018 08/07 Q1018 BECMG SCT009

TAF TAF EGNS
Valid from the 18 at 15:00 until the 18 at 22:00 UTC


181400Z 1815/1822 25010KT 9999 FEW009 SCT020 BKN025
PROB40
TEMPO 1815/1822 8000 -RA BKN009
PROB30
TEMPO 1815/1822 4000 -RADZ BKN006
No reported NOTAMs for that airfield.



MET'MAP, your aeronautical weather chart ! - Copyright ORBIFLY December 2007 - Disclaimer

ORBIFLY MET'MAP TEAM :

Programming & Development : Alexandra Zaïnal
Concept & Development : Baudouin d'Aumeries
Co-Development & Prog : Marc-Olivier Méhu
Technical & hardware support : Manuel Goepfert

Contact : metmap@orbifly.com




SOURCES & CREDITS :

   NOAA